Time;durP1;ratioP1;P1;durP2;ratioP2;P2;SDS_P1;SDS_P2;PMS_P1;PMS_P2;Temp;Humidity;BMP_temperature;BMP_pressure;BME280_temperature;BME280_humidity;BME280_pressure;Samples;Min_cycle;Max_cycle;Signal;HPM_P1;HPM_P2
2022/10/14 00:00:22;;;;;;;3.22;0.90;;;;;;;8.24;81.25;101512.13;10454753;28;20041;-76
2022/10/14 00:05:24;;;;;;;4.65;0.95;;;;;;;8.35;81.48;101516.75;10451731;28;20052;-76
2022/10/14 00:10:27;;;;;;;2.92;1.00;;;;;;;8.38;82.06;101513.53;10460203;28;20041;-76
2022/10/14 00:15:29;;;;;;;1.90;1.10;;;;;;;8.34;82.26;101512.38;10437281;28;20055;-77
2022/10/14 00:20:31;;;;;;;1.25;0.80;;;;;;;8.18;82.21;101505.75;10427891;28;20510;-76
2022/10/14 00:25:36;;;;;;;1.35;1.15;;;;;;;8.21;82.34;101494.31;10452013;28;20037;-76
2022/10/14 00:30:38;;;;;;;1.00;0.90;;;;;;;8.23;82.91;101496.78;10432086;28;20041;-76
2022/10/14 00:35:41;;;;;;;1.15;0.80;;;;;;;8.23;82.48;101497.63;10444217;28;20061;-76
2022/10/14 00:40:43;;;;;;;2.03;0.88;;;;;;;8.23;82.11;101492.16;10445255;28;20045;-76
2022/10/14 00:45:45;;;;;;;2.83;1.10;;;;;;;8.22;82.52;101492.41;10443361;28;20048;-76
2022/10/14 00:50:49;;;;;;;1.55;0.80;;;;;;;8.23;82.38;101491.34;10445671;28;20060;-76
2022/10/14 00:55:51;;;;;;;1.75;0.85;;;;;;;8.19;83.19;101487.44;10442040;28;20033;-75
2022/10/14 01:00:53;;;;;;;2.72;0.73;;;;;;;8.20;83.40;101478.16;10443358;28;20048;-76
2022/10/14 01:06:08;;;;;;;1.75;1.00;;;;;;;8.25;82.66;101470.03;10453072;28;20488;-78
2022/10/14 01:11:49;;;;;;;3.40;1.00;;;;;;;8.25;83.49;101470.88;10442547;28;20518;-77
2022/10/14 01:17:01;;;;;;;1.95;0.63;;;;;;;8.24;83.13;101468.38;10435104;28;20064;-77
2022/10/14 01:22:20;;;;;;;1.10;1.00;;;;;;;8.32;83.15;101478.91;10442390;28;20029;-78
2022/10/14 01:27:39;;;;;;;1.33;1.00;;;;;;;8.27;82.35;101462.41;10442027;28;20046;-77
2022/10/14 01:32:58;;;;;;;3.22;1.10;;;;;;;8.41;83.03;101459.16;10444025;28;20056;-77
2022/10/14 01:38:12;;;;;;;1.92;0.90;;;;;;;8.46;82.97;101458.41;10427476;28;20412;-77
2022/10/14 01:43:15;;;;;;;1.40;0.90;;;;;;;8.36;82.71;101464.56;10431694;28;20412;-76
2022/10/14 01:48:21;;;;;;;3.08;1.10;;;;;;;8.27;83.72;101459.69;10457562;28;20048;-76
2022/10/14 01:53:28;;;;;;;1.15;1.00;;;;;;;8.27;84.12;101451.47;10431611;28;20041;-76
2022/10/14 01:58:32;;;;;;;2.60;0.93;;;;;;;8.32;83.75;101448.81;10432909;28;20408;-75
2022/10/14 02:03:42;;;;;;;3.67;1.00;;;;;;;8.30;84.30;101446.34;10425380;28;20061;-77
2022/10/14 02:09:14;;;;;;;1.30;0.90;;;;;;;8.34;84.79;101439.34;10441014;28;20404;-75
2022/10/14 02:14:44;;;;;;;1.92;1.02;;;;;;;8.34;84.48;101441.25;10423486;28;20041;-75
2022/10/14 02:19:54;;;;;;;1.08;0.90;;;;;;;8.39;84.36;101449.53;10440970;28;20068;-77
2022/10/14 02:25:00;;;;;;;1.48;0.80;;;;;;;8.32;84.79;101443.34;10423184;28;20045;-76
2022/10/14 02:30:04;;;;;;;1.00;0.90;;;;;;;8.32;84.61;101433.25;10422673;28;20045;-76
2022/10/14 02:35:09;;;;;;;1.75;1.00;;;;;;;8.37;84.77;101436.13;10453638;28;20036;-77
2022/10/14 02:40:19;;;;;;;2.75;1.35;;;;;;;8.41;84.94;101431.81;10442242;28;20057;-77
2022/10/14 02:45:24;;;;;;;2.10;1.17;;;;;;;8.35;84.56;101431.97;10434454;28;20492;-76
2022/10/14 02:50:27;;;;;;;1.08;0.88;;;;;;;8.36;84.84;101439.09;10442499;28;20511;-76
2022/10/14 02:55:29;;;;;;;4.15;0.93;;;;;;;8.26;85.66;101431.50;10450559;28;20045;-77
2022/10/14 03:00:31;;;;;;;3.47;1.27;;;;;;;8.29;85.92;101432.91;10449586;28;20041;-77
2022/10/14 03:05:34;;;;;;;5.63;1.30;;;;;;;8.33;86.00;101425.88;10461385;28;20416;-77
2022/10/14 03:10:47;;;;;;;5.82;1.23;;;;;;;8.30;86.58;101429.09;10474217;28;20411;-77
2022/10/14 03:15:50;;;;;;;3.03;1.10;;;;;;;8.36;86.28;101433.63;10446109;28;20056;-76
2022/10/14 03:20:54;;;;;;;3.25;1.02;;;;;;;8.37;87.08;101418.88;10446520;28;20044;-77
2022/10/14 03:26:04;;;;;;;3.58;1.52;;;;;;;8.37;86.77;101427.09;10446247;28;20435;-76
2022/10/14 03:31:11;;;;;;;2.15;1.17;;;;;;;8.26;88.01;101423.31;10471392;28;20404;-76
2022/10/14 03:36:34;;;;;;;5.38;1.30;;;;;;;8.20;87.89;101409.81;10455897;28;20518;-77
2022/10/14 03:41:36;;;;;;;2.58;1.33;;;;;;;8.24;88.82;101413.69;10444372;28;20037;-78
2022/10/14 03:46:40;;;;;;;3.53;1.67;;;;;;;8.32;88.62;101408.63;10406960;28;20048;-76
2022/10/14 03:51:42;;;;;;;4.03;1.55;;;;;;;8.26;88.83;101406.91;10443735;28;20056;-77
2022/10/14 03:56:53;;;;;;;3.25;1.50;;;;;;;8.24;88.43;101400.84;10449508;28;20124;-76
2022/10/14 04:01:59;;;;;;;5.05;1.77;;;;;;;8.16;89.13;101402.09;10467449;28;20046;-77
2022/10/14 04:07:03;;;;;;;3.60;1.30;;;;;;;8.24;89.67;101400.03;10445797;28;20053;-77
2022/10/14 04:12:06;;;;;;;4.55;1.80;;;;;;;8.23;89.35;101395.63;10447030;28;20056;-77
2022/10/14 04:17:23;;;;;;;1.90;1.30;;;;;;;8.27;89.65;101397.63;10428853;28;20637;-77
2022/10/14 04:22:28;;;;;;;4.40;1.50;;;;;;;8.43;90.35;101385.91;10431595;28;20037;-78
2022/10/14 04:27:31;;;;;;;2.95;1.60;;;;;;;8.58;89.31;101390.78;10389823;28;20060;-78
2022/10/14 04:32:39;;;;;;;3.85;1.52;;;;;;;8.59;88.99;101392.44;10416017;28;20086;-78
2022/10/14 04:37:42;;;;;;;4.20;1.33;;;;;;;8.60;88.22;101385.88;10433106;28;20045;-78
2022/10/14 04:42:57;;;;;;;3.35;1.50;;;;;;;8.49;88.57;101378.59;10414789;28;20052;-78
2022/10/14 04:48:04;;;;;;;1.95;1.50;;;;;;;8.45;88.55;101366.50;10444496;28;20414;-77
2022/10/14 04:53:13;;;;;;;2.35;1.98;;;;;;;8.49;87.85;101367.66;10444736;28;20041;-78
2022/10/14 04:58:22;;;;;;;5.38;1.90;;;;;;;8.41;88.15;101365.34;10461351;28;20056;-78
2022/10/14 05:03:26;;;;;;;2.90;1.60;;;;;;;8.50;88.18;101369.31;10446274;28;20041;-78
2022/10/14 05:08:29;;;;;;;2.65;1.65;;;;;;;8.48;87.98;101363.25;10468777;28;20045;-78
2022/10/14 05:13:34;;;;;;;3.47;1.88;;;;;;;8.55;88.15;101361.19;10446349;28;20049;-78
2022/10/14 05:18:41;;;;;;;4.60;2.05;;;;;;;8.46;88.18;101354.47;10450158;28;20033;-78
2022/10/14 05:23:45;;;;;;;4.68;2.33;;;;;;;8.39;88.22;101356.56;10452898;28;20033;-78
2022/10/14 05:28:51;;;;;;;3.80;1.50;;;;;;;8.31;89.05;101352.28;10443241;28;20041;-78
2022/10/14 05:33:55;;;;;;;4.38;2.20;;;;;;;8.41;89.42;101347.03;10443002;28;20037;-78
2022/10/14 05:38:57;;;;;;;2.83;1.83;;;;;;;8.63;89.96;101346.25;10443795;28;20534;-78
2022/10/14 05:44:10;;;;;;;4.22;2.17;;;;;;;8.60;89.14;101349.50;10443680;28;20535;-78
2022/10/14 05:49:13;;;;;;;4.00;2.08;;;;;;;8.46;89.29;101346.28;10426874;28;20187;-78
2022/10/14 05:54:17;;;;;;;6.15;2.67;;;;;;;8.46;89.14;101338.06;10443149;28;20057;-78
2022/10/14 05:59:21;;;;;;;4.20;2.13;;;;;;;8.43;90.12;101338.56;10442687;28;20500;-79
2022/10/14 06:04:24;;;;;;;6.93;2.78;;;;;;;8.44;89.72;101342.97;10417979;28;20045;-79
2022/10/14 06:09:29;;;;;;;5.25;2.60;;;;;;;8.53;89.90;101340.66;10402115;28;20049;-79
2022/10/14 06:14:31;;;;;;;6.43;2.70;;;;;;;8.58;89.89;101346.19;10405452;28;20041;-79
2022/10/14 06:19:34;;;;;;;8.43;3.38;;;;;;;8.61;89.33;101349.25;10442707;28;20041;-79
2022/10/14 06:24:37;;;;;;;7.72;2.88;;;;;;;8.62;89.22;101342.69;10445881;28;20045;-79
2022/10/14 06:29:39;;;;;;;8.90;3.13;;;;;;;8.71;89.45;101349.41;10450068;28;20419;-78
2022/10/14 06:34:41;;;;;;;7.63;3.05;;;;;;;8.65;88.17;101342.19;10450697;28;20539;-79
2022/10/14 06:39:43;;;;;;;7.07;3.00;;;;;;;8.66;88.88;101352.03;10451304;28;20045;-78
2022/10/14 06:44:46;;;;;;;6.28;2.78;;;;;;;8.73;88.62;101347.25;10450829;28;20041;-78
2022/10/14 06:49:48;;;;;;;7.63;3.38;;;;;;;8.75;88.23;101338.78;10450946;28;20047;-78
2022/10/14 06:54:50;;;;;;;6.03;3.38;;;;;;;8.79;88.12;101347.31;10450561;28;20068;-78
2022/10/14 06:59:52;;;;;;;7.53;3.35;;;;;;;8.84;88.12;101344.63;10451920;28;20061;-78
2022/10/14 07:04:54;;;;;;;5.38;2.60;;;;;;;8.86;87.80;101335.13;10448878;28;20475;-78
2022/10/14 07:09:57;;;;;;;11.43;4.10;;;;;;;8.88;88.02;101343.06;10450004;28;20046;-77
2022/10/14 07:14:59;;;;;;;5.30;3.13;;;;;;;8.92;87.86;101344.22;10449737;28;20068;-78
2022/10/14 07:20:02;;;;;;;6.47;3.63;;;;;;;9.01;88.36;101348.16;10450345;28;20508;-77
2022/10/14 07:25:04;;;;;;;10.48;3.65;;;;;;;9.01;87.18;101346.25;10416048;28;20044;-78
2022/10/14 07:30:07;;;;;;;6.20;4.00;;;;;;;9.11;87.52;101337.34;10449085;28;20404;-78
2022/10/14 07:35:09;;;;;;;6.75;3.85;;;;;;;9.15;87.33;101348.63;10448048;28;20104;-78
2022/10/14 07:40:12;;;;;;;7.40;3.70;;;;;;;9.20;86.80;101345.94;10448492;28;20045;-80
2022/10/14 07:45:17;;;;;;;6.88;3.90;;;;;;;9.27;87.15;101352.91;10448109;28;20046;-78
2022/10/14 07:50:19;;;;;;;10.43;3.38;;;;;;;9.30;86.97;101346.91;10433875;28;20461;-78
2022/10/14 07:55:21;;;;;;;8.77;3.83;;;;;;;9.34;86.80;101342.56;10447459;28;20048;-78
2022/10/14 08:00:23;;;;;;;7.20;3.65;;;;;;;9.31;87.16;101343.06;10435121;28;20045;-78
2022/10/14 08:05:25;;;;;;;7.15;3.50;;;;;;;9.23;87.13;101338.06;10422745;28;20037;-78
2022/10/14 08:10:28;;;;;;;5.38;3.60;;;;;;;9.16;87.30;101340.16;10406448;28;20061;-77
2022/10/14 08:15:37;;;;;;;5.30;3.60;;;;;;;9.17;87.19;101339.06;10395416;28;20064;-79
2022/10/14 08:20:39;;;;;;;6.07;3.75;;;;;;;9.23;87.46;101332.59;10446320;28;20041;-79
2022/10/14 08:25:42;;;;;;;10.07;3.38;;;;;;;9.26;87.51;101333.97;10447587;28;20444;-79
2022/10/14 08:30:45;;;;;;;7.30;3.45;;;;;;;9.42;87.66;101335.00;10430169;28;20042;-79
2022/10/14 08:35:47;;;;;;;6.57;3.17;;;;;;;9.42;86.80;101326.78;10446271;28;20056;-79
2022/10/14 08:40:55;;;;;;;9.43;2.67;;;;;;;9.44;87.20;101325.44;10445842;28;20512;-79
2022/10/14 08:45:59;;;;;;;;;;;;;;;9.45;86.46;101332.56;10446785;28;20420;-77
2022/10/14 08:51:06;;;;;;;8.75;2.47;;;;;;;9.54;86.58;101321.97;10445055;28;19921;-79
2022/10/14 08:56:10;;;;;;;5.25;2.38;;;;;;;9.59;85.77;101327.50;10446205;28;20045;-79
2022/10/14 09:01:25;;;;;;;4.22;2.50;;;;;;;9.58;85.87;101314.91;10428844;28;20041;-79
2022/10/14 09:06:33;;;;;;;4.80;2.20;;;;;;;9.67;85.42;101313.34;10442330;28;20496;-79
2022/10/14 09:11:41;;;;;;;3.35;2.28;;;;;;;9.65;85.55;101321.81;10445011;28;20044;-79
2022/10/14 09:16:45;;;;;;;3.45;2.03;;;;;;;9.72;84.83;101318.03;10443875;28;20049;-77
2022/10/14 09:21:52;;;;;;;5.35;2.55;;;;;;;9.76;85.13;101309.06;10444301;28;20044;-77
2022/10/14 09:27:10;;;;;;;4.63;2.33;;;;;;;9.82;85.31;101297.03;10443380;28;20554;-77
2022/10/14 09:32:26;;;;;;;2.83;2.53;;;;;;;9.92;85.17;101297.16;10443421;28;20041;-77
2022/10/14 09:37:36;;;;;;;6.60;3.08;;;;;;;10.03;83.91;101302.69;10430608;28;20479;-77
2022/10/14 09:42:46;;;;;;;6.68;2.72;;;;;;;10.08;84.30;101291.81;10444650;28;20523;-78
2022/10/14 09:48:02;;;;;;;5.25;2.88;;;;;;;10.12;84.18;101292.91;10443863;28;20056;-77
2022/10/14 09:53:31;;;;;;;6.30;2.77;;;;;;;10.12;83.05;101298.41;10437215;28;20587;-79
2022/10/14 09:58:42;;;;;;;;;;;;;;;10.22;83.42;101298.50;10427358;28;20049;-79
2022/10/14 10:03:46;;;;;;;6.07;3.10;;;;;;;10.24;82.47;101291.69;10452865;28;19921;-79
2022/10/14 10:08:54;;;;;;;4.63;2.88;;;;;;;10.21;81.82;101280.38;10452895;28;20042;-79
2022/10/14 10:13:56;;;;;;;4.65;2.88;;;;;;;10.26;82.09;101283.19;10449988;28;20389;-84
2022/10/14 10:19:28;;;;;;;6.07;2.58;;;;;;;10.29;81.60;101287.31;10451411;28;20037;-83
2022/10/14 10:24:31;;;;;;;6.00;3.72;;;;;;;10.33;81.31;101283.78;10434709;28;20046;-85
2022/10/14 10:29:34;;;;;;;5.28;2.97;;;;;;;10.43;80.73;101288.53;10451076;28;20038;-80
2022/10/14 10:34:48;;;;;;;5.45;2.63;;;;;;;10.40;79.96;101281.63;10437213;28;20052;-82
2022/10/14 10:40:15;;;;;;;5.53;2.55;;;;;;;10.41;79.82;101286.03;10453566;28;20052;-80
2022/10/14 10:45:50;;;;;;;2.92;2.10;;;;;;;10.37;77.98;101286.81;10449484;28;20048;-79
2022/10/14 10:51:03;;;;;;;2.97;2.55;;;;;;;10.40;78.01;101276.13;10447560;28;20041;-78
2022/10/14 10:56:20;;;;;;;6.30;2.40;;;;;;;10.38;77.83;101275.56;10449149;28;20060;-78
2022/10/14 11:01:41;;;;;;;6.83;2.50;;;;;;;10.39;77.99;101277.22;10441325;28;20076;-79
2022/10/14 11:12:42;;;;;;;4.60;2.72;;;;;;;10.43;76.42;101269.31;10421815;28;20650;-78
2022/10/14 11:18:08;;;;;;;6.72;3.28;;;;;;;10.53;76.61;101259.22;10449112;28;20045;-79
2022/10/14 11:23:19;;;;;;;4.88;2.53;;;;;;;10.57;76.17;101268.56;10407121;28;20046;-89
2022/10/14 11:28:31;;;;;;;5.20;2.38;;;;;;;10.56;76.44;101257.84;10434429;28;20052;-87
2022/10/14 11:33:43;;;;;;;5.93;2.60;;;;;;;10.59;75.89;101257.34;10453138;28;20049;-86
2022/10/14 11:39:10;;;;;;;4.85;2.67;;;;;;;10.62;76.12;101250.50;10443339;28;20033;-81
2022/10/14 11:44:35;;;;;;;4.70;2.38;;;;;;;10.60;75.53;101260.91;10445764;28;20427;-86
2022/10/14 11:49:45;;;;;;;5.75;2.63;;;;;;;10.62;75.82;101245.81;10444992;28;20041;-83
2022/10/14 11:54:51;;;;;;;3.50;2.30;;;;;;;10.64;76.27;101246.38;10462172;28;20057;-84
2022/10/14 12:00:12;;;;;;;6.25;2.33;;;;;;;10.68;75.62;101239.25;10449213;28;20039;-86
2022/10/14 12:05:24;;;;;;;4.30;2.63;;;;;;;10.58;76.21;101231.78;10477666;28;20408;-86
2022/10/14 12:11:00;;;;;;;5.85;2.45;;;;;;;10.57;75.79;101232.88;10461771;28;20038;-86
2022/10/14 12:16:04;;;;;;;4.07;2.40;;;;;;;10.60;75.76;101228.81;10449061;28;20044;-86
2022/10/14 12:21:28;;;;;;;6.97;2.55;;;;;;;10.67;76.36;101223.06;10445872;28;20053;-82
2022/10/14 12:26:52;;;;;;;6.40;2.63;;;;;;;10.69;76.37;101221.69;10462073;28;20040;-78
2022/10/14 12:32:03;;;;;;;9.80;2.75;;;;;;;10.73;76.64;101211.00;10456837;28;20059;-77
2022/10/14 12:37:23;;;;;;;6.40;2.65;;;;;;;10.75;76.34;101217.88;10458917;28;20061;-76
2022/10/14 12:42:26;;;;;;;6.63;2.60;;;;;;;10.76;76.83;101213.19;10417533;28;20073;-77
2022/10/14 12:47:36;;;;;;;5.60;2.88;;;;;;;10.82;77.34;101209.41;10447882;28;20401;-77
2022/10/14 12:52:39;;;;;;;7.45;2.78;;;;;;;10.85;76.98;101201.44;10442447;28;20040;-77
2022/10/14 12:57:42;;;;;;;5.50;2.92;;;;;;;10.80;76.26;101200.63;10445320;28;20140;-78
2022/10/14 13:02:44;;;;;;;4.03;2.50;;;;;;;10.72;76.42;101195.63;10439224;28;20090;-76
2022/10/14 13:08:18;;;;;;;5.82;2.97;;;;;;;10.71;76.89;101196.72;10437469;28;20045;-77
2022/10/14 13:18:46;;;;;;;6.85;2.55;;;;;;;10.71;77.05;101185.75;10441433;28;20049;-73
2022/10/14 13:23:49;;;;;;;4.85;2.65;;;;;;;10.65;77.38;101184.09;10429826;28;20045;-73
2022/10/14 13:29:13;;;;;;;6.07;2.28;;;;;;;10.65;77.23;101181.34;10443325;28;20416;-73
2022/10/14 13:34:21;;;;;;;5.18;2.40;;;;;;;10.61;77.95;101169.25;10444201;28;20045;-73
2022/10/14 13:39:24;;;;;;;3.35;2.17;;;;;;;10.54;77.51;101164.81;10441943;28;20045;-73
2022/10/14 13:44:26;;;;;;;7.32;2.17;;;;;;;10.48;77.75;101171.38;10449815;28;20051;-73
2022/10/14 13:49:33;;;;;;;3.95;2.13;;;;;;;10.53;77.91;101170.56;10485233;28;20044;-73
2022/10/14 13:54:36;;;;;;;5.25;2.95;;;;;;;10.53;77.84;101173.31;10459456;28;20088;-73
2022/10/14 13:59:43;;;;;;;7.22;3.42;;;;;;;10.54;78.15;101172.22;10442869;28;20049;-73
2022/10/14 14:04:50;;;;;;;5.28;2.22;;;;;;;10.48;78.71;101167.81;10443427;28;20515;-73
2022/10/14 14:09:59;;;;;;;6.07;2.63;;;;;;;10.39;78.46;101170.22;10436720;28;20038;-73
2022/10/14 14:15:03;;;;;;;3.53;2.10;;;;;;;10.38;78.80;101168.59;10442287;28;20052;-73
2022/10/14 14:20:10;;;;;;;7.45;2.72;;;;;;;10.37;78.62;101160.63;10426100;28;20041;-73
2022/10/14 14:25:18;;;;;;;3.33;2.47;;;;;;;10.39;78.75;101161.19;10438583;28;20512;-73
2022/10/14 14:30:31;;;;;;;5.18;2.28;;;;;;;10.38;78.71;101168.59;10443505;28;20041;-73
2022/10/14 14:35:34;;;;;;;6.35;2.17;;;;;;;10.34;78.29;101163.91;10439430;28;20056;-73
2022/10/14 14:40:36;;;;;;;3.22;2.30;;;;;;;10.32;79.32;101164.16;10429886;28;20108;-73
2022/10/14 14:45:45;;;;;;;3.80;2.10;;;;;;;10.30;79.21;101163.63;10447327;28;20048;-72
2022/10/14 14:50:47;;;;;;;6.53;2.63;;;;;;;10.27;78.93;101158.66;10453929;28;20033;-72
2022/10/14 14:55:55;;;;;;;3.97;2.75;;;;;;;10.16;79.00;101162.41;10392700;28;20050;-73
2022/10/14 15:00:58;;;;;;;7.03;3.08;;;;;;;10.18;79.07;101155.56;10427235;28;20415;-75
2022/10/14 15:06:04;;;;;;;7.03;3.53;;;;;;;10.18;78.76;101155.56;10420922;28;20048;-88
2022/10/14 15:11:07;;;;;;;6.47;2.95;;;;;;;10.10;79.24;101156.06;10449461;28;20043;-78
2022/10/14 15:16:09;;;;;;;5.22;3.20;;;;;;;10.12;79.68;101161.28;10452922;28;20048;-79
2022/10/14 15:21:15;;;;;;;6.53;3.13;;;;;;;10.10;79.13;101164.31;10449459;28;20046;-80
2022/10/14 15:26:24;;;;;;;8.45;3.03;;;;;;;10.06;79.53;101156.84;10449473;28;20049;-82
2022/10/14 15:31:26;;;;;;;7.03;2.95;;;;;;;10.02;79.18;101162.03;10458627;28;20036;-80
2022/10/14 15:36:30;;;;;;;5.55;4.13;;;;;;;9.98;79.22;101163.66;10429985;28;20060;-86
2022/10/14 15:41:33;;;;;;;4.95;3.03;;;;;;;10.04;79.22;101170.81;10443988;28;20491;-78
2022/10/14 15:51:56;;;;;;;3.60;2.78;;;;;;;10.08;79.28;101173.88;10449809;28;20049;-79
2022/10/14 15:56:58;;;;;;;8.43;3.22;;;;;;;10.03;79.40;101168.34;10440074;28;20064;-80
2022/10/14 16:02:02;;;;;;;7.32;3.17;;;;;;;9.98;78.92;101167.22;10441555;28;20049;-77
2022/10/14 16:07:08;;;;;;;4.97;3.35;;;;;;;9.92;79.17;101162.81;10452890;28;20044;-76
2022/10/14 16:12:12;;;;;;;3.58;2.63;;;;;;;9.88;79.13;101167.16;10442515;28;20045;-76
2022/10/14 16:17:14;;;;;;;6.32;2.50;;;;;;;9.93;79.89;101169.94;10436904;28;20053;-76
2022/10/14 16:22:16;;;;;;;2.95;2.50;;;;;;;10.00;79.00;101160.66;10457910;28;20041;-77
2022/10/14 16:27:18;;;;;;;6.00;2.47;;;;;;;9.94;78.81;101170.78;10439689;28;21320;-77
2022/10/14 16:32:20;;;;;;;7.95;2.85;;;;;;;9.96;79.97;101169.41;10443906;28;20041;-77
2022/10/14 16:37:23;;;;;;;6.82;2.15;;;;;;;9.93;79.64;101160.91;10445448;28;20045;-77
2022/10/14 16:42:25;;;;;;;5.32;2.15;;;;;;;9.93;79.70;101160.91;10443955;28;20044;-77
2022/10/14 16:47:27;;;;;;;6.40;2.70;;;;;;;9.90;80.49;101153.22;10415520;28;20420;-78
2022/10/14 16:53:39;;;;;;;5.78;2.75;;;;;;;9.88;80.51;101164.41;10424113;28;20044;-77
2022/10/14 16:57:52;;;;;;;6.88;2.55;;;;;;;9.88;80.85;101158.09;10443770;28;20042;-78
2022/10/14 17:02:54;;;;;;;9.77;2.70;;;;;;;9.84;81.03;101166.03;10461869;28;20043;-76
2022/10/14 17:07:56;;;;;;;4.63;3.00;;;;;;;9.90;81.02;101167.75;10441688;28;20045;-77
2022/10/14 17:13:00;;;;;;;5.38;2.60;;;;;;;9.92;80.90;101172.97;10441296;28;20033;-78
2022/10/14 17:18:04;;;;;;;3.92;2.60;;;;;;;9.94;80.87;101173.53;10445134;28;20034;-78
2022/10/14 17:23:06;;;;;;;3.85;2.28;;;;;;;9.93;81.53;101169.94;10461242;28;20044;-77
2022/10/14 17:28:11;;;;;;;4.68;2.90;;;;;;;9.92;81.26;101173.78;10471726;28;20522;-78
2022/10/14 17:33:14;;;;;;;3.67;2.30;;;;;;;10.00;81.47;101168.88;10454171;28;20052;-77
2022/10/14 17:38:16;;;;;;;6.82;2.30;;;;;;;9.92;82.26;101162.00;10411563;28;20451;-78
2022/10/14 17:43:19;;;;;;;5.93;2.42;;;;;;;9.88;82.40;101153.44;10443351;28;20048;-77
2022/10/14 17:48:21;;;;;;;3.28;2.03;;;;;;;9.84;82.31;101163.28;10442187;28;20676;-77
2022/10/14 17:53:23;;;;;;;4.20;2.30;;;;;;;9.82;82.21;101161.91;10443274;28;20054;-76
2022/10/14 17:58:25;;;;;;;4.68;3.30;;;;;;;9.80;82.47;101164.91;10436330;28;20041;-77
2022/10/14 18:03:28;;;;;;;5.78;2.08;;;;;;;9.84;82.32;101160.56;10429684;28;20045;-76
2022/10/14 18:08:30;;;;;;;3.72;2.30;;;;;;;9.79;82.63;101170.66;10441721;28;20480;-77
2022/10/14 18:13:33;;;;;;;3.83;2.28;;;;;;;9.75;82.52;101162.16;10435250;28;20050;-78
2022/10/14 18:18:35;;;;;;;5.38;2.28;;;;;;;9.68;82.71;101156.88;10464068;28;20487;-77
2022/10/14 18:23:38;;;;;;;5.07;2.38;;;;;;;9.74;83.53;101159.69;10456050;28;20056;-78
2022/10/14 18:28:43;;;;;;;4.40;2.00;;;;;;;9.74;83.13;101157.75;10449678;28;20041;-77
2022/10/14 18:33:52;;;;;;;2.78;1.85;;;;;;;9.79;82.33;101155.03;10449081;28;20050;-77
2022/10/14 18:38:59;;;;;;;3.22;1.83;;;;;;;9.79;82.76;101159.69;10451678;28;20041;-77
2022/10/14 18:44:01;;;;;;;5.10;2.10;;;;;;;9.86;82.51;101152.88;10449080;28;20424;-78
2022/10/14 18:49:06;;;;;;;4.13;2.40;;;;;;;9.79;81.93;101155.03;10447711;28;20037;-77
2022/10/14 18:54:14;;;;;;;6.65;2.28;;;;;;;9.80;81.85;101155.88;10442048;28;20053;-77
2022/10/14 18:59:21;;;;;;;3.03;1.77;;;;;;;9.80;82.32;101156.69;10445242;28;20049;-78
2022/10/14 19:04:25;;;;;;;3.38;1.92;;;;;;;9.80;81.64;101156.69;10446998;28;20044;-76
2022/10/14 19:09:28;;;;;;;2.63;1.67;;;;;;;9.81;82.04;101152.88;10448168;28;20042;-74
2022/10/14 19:14:30;;;;;;;3.20;1.95;;;;;;;9.81;81.79;101144.63;10453580;28;20429;-75
2022/10/14 19:19:33;;;;;;;3.58;2.30;;;;;;;9.80;81.10;101143.00;10447379;28;20554;-75
2022/10/14 19:24:35;;;;;;;2.83;1.50;;;;;;;9.76;81.59;101136.38;10448340;28;20037;-76
2022/10/14 19:29:37;;;;;;;2.67;1.83;;;;;;;9.80;81.84;101151.22;10458167;28;20037;-76
2022/10/14 19:34:39;;;;;;;2.10;1.60;;;;;;;9.81;81.08;101143.81;10446568;28;20041;-76
2022/10/14 19:39:42;;;;;;;6.97;2.28;;;;;;;9.82;81.71;101138.06;10446933;28;20057;-77
2022/10/14 19:44:44;;;;;;;3.78;2.05;;;;;;;9.81;81.10;101147.38;10447114;28;20046;-75
2022/10/14 19:49:46;;;;;;;2.03;1.52;;;;;;;9.87;81.41;101140.00;10463391;28;20040;-77
2022/10/14 19:54:48;;;;;;;4.45;2.00;;;;;;;9.87;80.98;101137.25;10453827;28;20037;-77
2022/10/14 19:59:50;;;;;;;3.65;1.52;;;;;;;9.94;80.30;101138.69;10466437;28;20506;-77
2022/10/14 20:04:52;;;;;;;2.10;1.60;;;;;;;9.94;79.94;101130.47;10442819;28;20038;-76
2022/10/14 20:09:55;;;;;;;1.95;1.40;;;;;;;9.96;80.08;101135.69;10454898;28;20045;-76
2022/10/14 20:14:57;;;;;;;2.50;1.30;;;;;;;9.88;79.42;101137.00;10469700;28;20060;-76
2022/10/14 20:19:59;;;;;;;2.13;1.55;;;;;;;9.93;79.99;101128.81;10460266;28;20045;-79
2022/10/14 20:25:02;;;;;;;3.90;1.50;;;;;;;9.91;79.56;101131.00;10446455;28;20041;-77
2022/10/14 20:30:05;;;;;;;3.22;1.50;;;;;;;9.88;78.84;101126.03;10445571;28;20492;-77
2022/10/14 20:35:07;;;;;;;1.77;1.30;;;;;;;9.86;79.37;101124.66;10462927;28;20049;-77
2022/10/14 20:40:10;;;;;;;2.25;1.70;;;;;;;9.74;79.43;101124.03;10464122;28;20694;-77
2022/10/14 20:45:12;;;;;;;5.18;2.20;;;;;;;9.72;79.80;101128.94;10458566;28;20519;-77
2022/10/14 20:50:15;;;;;;;3.10;1.60;;;;;;;9.74;79.50;101121.31;10445371;28;20042;-77
2022/10/14 20:55:18;;;;;;;1.73;1.42;;;;;;;9.67;79.28;101118.78;10457936;28;20428;-77
2022/10/14 21:00:20;;;;;;;2.75;1.35;;;;;;;9.57;79.98;101116.81;10449782;28;20053;-78
2022/10/14 21:05:22;;;;;;;3.33;1.40;;;;;;;9.51;80.12;101117.00;10444934;28;20049;-78
2022/10/14 21:10:24;;;;;;;1.73;1.13;;;;;;;9.44;79.76;101113.69;10445245;28;20045;-77
2022/10/14 21:15:27;;;;;;;2.75;1.55;;;;;;;9.39;79.92;101117.22;10444249;28;20060;-75
2022/10/14 21:20:29;;;;;;;2.53;1.35;;;;;;;9.40;80.02;101107.09;10438788;28;20700;-76
2022/10/14 21:25:31;;;;;;;3.05;1.30;;;;;;;9.39;80.07;101105.44;10440322;28;20053;-77
2022/10/14 21:30:33;;;;;;;2.53;1.30;;;;;;;9.44;79.83;101105.47;10470045;28;20055;-77
2022/10/14 21:35:36;;;;;;;4.30;1.58;;;;;;;9.43;79.54;101110.13;10444326;28;20132;-77
2022/10/14 21:40:38;;;;;;;1.65;1.25;;;;;;;9.41;79.49;101106.00;10441048;28;20046;-77
2022/10/14 21:45:41;;;;;;;3.80;1.60;;;;;;;9.44;79.76;101108.19;10450855;28;20041;-77
2022/10/14 21:50:43;;;;;;;5.47;1.33;;;;;;;9.42;79.63;101107.66;10451923;28;20033;-77
2022/10/14 21:55:51;;;;;;;5.78;1.52;;;;;;;9.45;79.80;101112.59;10429229;28;20053;-77
2022/10/14 22:01:04;;;;;;;5.68;1.73;;;;;;;9.50;79.44;101104.41;10451265;28;20041;-76
2022/10/14 22:06:09;;;;;;;2.92;1.70;;;;;;;9.44;80.22;101105.47;10414356;28;20041;-78
2022/10/14 22:11:24;;;;;;;2.70;1.30;;;;;;;9.57;79.77;101105.84;10451189;28;20412;-77
2022/10/14 22:16:27;;;;;;;2.08;1.20;;;;;;;9.60;78.88;101099.00;10416507;28;20052;-75
2022/10/14 22:21:31;;;;;;;1.17;1.08;;;;;;;9.58;78.94;101101.19;10452366;28;20057;-75
2022/10/14 22:26:34;;;;;;;3.63;1.48;;;;;;;9.63;79.49;101099.31;10452065;28;20037;-76
2022/10/14 22:31:36;;;;;;;1.40;1.20;;;;;;;9.77;78.66;101093.38;10451854;28;20064;-78
2022/10/14 22:36:39;;;;;;;2.58;1.48;;;;;;;9.66;78.25;101097.94;10452184;28;20060;-76
2022/10/14 22:41:41;;;;;;;2.15;1.58;;;;;;;9.65;78.35;101097.13;10449881;28;20045;-76
2022/10/14 22:46:44;;;;;;;2.13;1.17;;;;;;;9.59;78.10;101097.34;10449167;28;20034;-76
2022/10/14 22:51:46;;;;;;;1.25;1.10;;;;;;;9.63;78.72;101093.00;10446317;28;20527;-76
2022/10/14 22:56:48;;;;;;;4.38;1.38;;;;;;;9.62;78.34;101097.66;10449719;28;20407;-76
2022/10/14 23:01:50;;;;;;;1.27;1.00;;;;;;;9.57;77.74;101100.38;10450590;28;20048;-76
2022/10/14 23:06:52;;;;;;;4.00;1.52;;;;;;;9.51;78.32;101106.88;10450034;28;20041;-76
2022/10/14 23:11:54;;;;;;;2.92;1.40;;;;;;;9.46;77.97;101098.63;10448019;28;20048;-76
2022/10/14 23:16:56;;;;;;;2.22;1.17;;;;;;;9.50;78.53;101104.41;10447157;28;20049;-77
2022/10/14 23:21:59;;;;;;;1.83;1.10;;;;;;;9.45;79.10;101105.19;10480068;28;20041;-75
2022/10/14 23:27:01;;;;;;;2.03;1.20;;;;;;;9.48;79.11;101103.84;10467834;28;20052;-76
2022/10/14 23:32:03;;;;;;;4.43;2.05;;;;;;;9.50;79.38;101104.41;10461397;28;20038;-76
2022/10/14 23:37:05;;;;;;;2.65;1.20;;;;;;;9.54;78.66;101100.03;10432008;28;20651;-76
2022/10/14 23:42:07;;;;;;;4.95;1.65;;;;;;;9.48;78.67;101092.88;10448611;28;20060;-76
2022/10/14 23:47:10;;;;;;;2.33;1.55;;;;;;;9.41;78.70;101093.13;10445866;28;20045;-76
2022/10/14 23:52:12;;;;;;;2.80;1.42;;;;;;;9.39;79.47;101092.56;10446070;28;20038;-76
2022/10/14 23:57:14;;;;;;;1.85;1.13;;;;;;;9.43;79.06;101092.84;10444033;28;20042;-76
